createdAt,value
2022-08-19T00:00:46.458Z,19.85
2022-08-19T00:03:15.018Z,19.86
2022-08-19T00:05:43.654Z,19.78
2022-08-19T00:08:12.560Z,19.71
2022-08-19T00:10:41.207Z,19.71
2022-08-19T00:13:10.578Z,19.73
2022-08-19T00:15:39.206Z,19.67
2022-08-19T00:18:07.799Z,19.64
2022-08-19T00:20:36.326Z,19.60
2022-08-19T00:23:05.034Z,19.60
2022-08-19T00:25:34.599Z,19.54
2022-08-19T00:28:04.402Z,19.51
2022-08-19T00:30:32.973Z,19.53
2022-08-19T00:33:02.885Z,19.54
2022-08-19T00:35:33.171Z,19.54
2022-08-19T00:38:01.766Z,19.54
2022-08-19T00:40:31.884Z,19.59
2022-08-19T00:43:00.906Z,19.63
2022-08-19T00:45:32.814Z,19.61
2022-08-19T00:48:05.603Z,19.64
2022-08-19T00:50:52.094Z,19.67
2022-08-19T00:53:25.472Z,19.76
2022-08-19T00:55:58.128Z,19.77
2022-08-19T00:58:31.714Z,19.74
2022-08-19T01:01:01.955Z,19.80
2022-08-19T01:03:56.854Z,19.82
2022-08-19T01:06:20.580Z,19.83
2022-08-19T01:08:50.010Z,19.85
2022-08-19T01:11:18.848Z,19.84
2022-08-19T01:13:49.871Z,19.82
2022-08-19T01:16:21.657Z,19.74
2022-08-19T01:18:51.022Z,19.66
2022-08-19T01:21:53.457Z,19.70
2022-08-19T01:24:22.300Z,19.66
2022-08-19T01:26:53.334Z,19.67
2022-08-19T01:29:22.050Z,19.67
2022-08-19T01:31:54.644Z,19.55
2022-08-19T01:34:23.606Z,19.60
2022-08-19T01:36:52.202Z,19.57
2022-08-19T01:39:26.115Z,19.54
2022-08-19T01:41:56.219Z,19.52
2022-08-19T01:44:25.219Z,19.53
2022-08-19T01:46:53.983Z,19.48
2022-08-19T01:49:26.264Z,19.40
2022-08-19T01:51:55.326Z,19.38
2022-08-19T01:54:27.558Z,19.36
2022-08-19T01:57:06.679Z,19.27
2022-08-19T01:59:37.619Z,19.29
2022-08-19T02:02:09.550Z,19.30
2022-08-19T02:04:40.998Z,19.34
2022-08-19T02:07:09.998Z,19.31
2022-08-19T02:09:39.304Z,19.28
2022-08-19T02:12:10.056Z,19.29
2022-08-19T02:14:38.635Z,19.30
2022-08-19T02:17:07.519Z,19.31
2022-08-19T02:19:36.061Z,19.26
2022-08-19T02:22:07.975Z,19.25
2022-08-19T02:24:36.507Z,19.18
2022-08-19T02:27:05.816Z,19.17
2022-08-19T02:29:34.848Z,19.20
2022-08-19T02:32:04.281Z,19.17
2022-08-19T02:34:32.823Z,19.14
2022-08-19T02:37:03.729Z,19.07
2022-08-19T02:39:32.756Z,19.11
2022-08-19T02:42:03.278Z,19.14
2022-08-19T02:44:32.207Z,19.12
2022-08-19T02:47:00.721Z,19.09
2022-08-19T02:49:29.312Z,19.03
2022-08-19T02:52:04.106Z,19.06
2022-08-19T02:54:32.735Z,19.06
2022-08-19T02:57:04.072Z,19.08
2022-08-19T02:59:34.134Z,19.07
2022-08-19T03:02:04.229Z,19.10
2022-08-19T03:04:32.856Z,19.13
2022-08-19T03:07:11.077Z,19.18
2022-08-19T03:09:40.425Z,19.20
2022-08-19T03:12:09.776Z,19.24
2022-08-19T03:14:38.731Z,19.26
2022-08-19T03:17:07.885Z,19.22
2022-08-19T03:19:36.456Z,19.23
2022-08-19T03:22:05.944Z,19.23
2022-08-19T03:24:34.548Z,19.20
2022-08-19T03:27:05.979Z,19.22
2022-08-19T03:29:43.258Z,19.19
2022-08-19T03:32:32.181Z,19.18
2022-08-19T03:35:03.784Z,19.17
2022-08-19T03:37:34.181Z,19.19
2022-08-19T03:40:07.603Z,19.15
2022-08-19T03:42:49.042Z,19.15
2022-08-19T03:45:32.381Z,19.19
2022-08-19T03:48:03.522Z,19.21
2022-08-19T03:50:32.089Z,19.21
2022-08-19T03:53:01.821Z,19.24
2022-08-19T03:55:53.043Z,19.25
2022-08-19T03:58:24.820Z,19.23
2022-08-19T04:00:53.410Z,19.28
2022-08-19T04:03:27.564Z,19.28
2022-08-19T04:05:56.165Z,19.28
2022-08-19T04:08:24.759Z,19.28
2022-08-19T04:10:53.696Z,19.25
2022-08-19T04:13:22.380Z,19.22
2022-08-19T04:15:51.049Z,19.23
2022-08-19T04:18:19.787Z,19.29
2022-08-19T04:20:48.990Z,19.34
2022-08-19T04:23:17.829Z,19.39
2022-08-19T04:25:47.540Z,19.43
2022-08-19T04:28:21.750Z,19.43
2022-08-19T04:30:58.145Z,19.44
2022-08-19T04:33:31.074Z,19.48
2022-08-19T04:35:59.948Z,19.50
2022-08-19T04:38:29.117Z,19.60
2022-08-19T04:41:18.373Z,19.69
2022-08-19T04:43:50.134Z,19.76
2022-08-19T04:46:40.280Z,19.84
2022-08-19T04:49:13.094Z,19.96
2022-08-19T04:51:44.932Z,20.07
2022-08-19T04:54:13.972Z,20.17
2022-08-19T04:56:42.717Z,20.32
2022-08-19T04:59:12.013Z,20.48
2022-08-19T05:01:40.593Z,20.61
2022-08-19T05:04:09.168Z,20.74
2022-08-19T05:06:38.025Z,20.88
2022-08-19T05:09:06.752Z,21.02
2022-08-19T05:11:40.948Z,21.16
2022-08-19T05:14:11.036Z,21.29
2022-08-19T05:16:41.010Z,21.41
2022-08-19T05:19:28.132Z,21.51
2022-08-19T05:22:15.277Z,21.66
2022-08-19T05:24:56.624Z,21.77
2022-08-19T05:27:31.497Z,21.74
2022-08-19T05:30:00.757Z,21.81
2022-08-19T05:32:29.389Z,21.94
2022-08-19T05:34:58.204Z,22.03
2022-08-19T05:37:33.375Z,22.01
2022-08-19T05:40:52.627Z,22.06
2022-08-19T05:43:21.395Z,22.16
2022-08-19T05:45:57.281Z,22.17
2022-08-19T05:48:25.945Z,22.24
2022-08-19T05:51:11.450Z,22.36
2022-08-19T05:53:42.182Z,22.41
2022-08-19T05:56:18.746Z,22.47
2022-08-19T05:58:47.349Z,22.53
2022-08-19T06:01:27.398Z,22.54
2022-08-19T06:03:58.623Z,22.60
2022-08-19T06:06:27.283Z,22.62
2022-08-19T06:09:04.863Z,22.73
2022-08-19T06:11:42.683Z,22.83
2022-08-19T06:14:32.277Z,22.86
2022-08-19T06:17:19.906Z,22.96
2022-08-19T06:19:48.653Z,23.02
2022-08-19T06:22:25.445Z,23.11
2022-08-19T06:24:59.833Z,23.20
2022-08-19T06:28:11.393Z,23.28
2022-08-19T06:30:51.904Z,23.32
2022-08-19T06:33:28.468Z,23.37
2022-08-19T06:36:02.016Z,23.50
2022-08-19T06:38:30.862Z,23.55
2022-08-19T06:41:07.515Z,23.61
2022-08-19T06:43:45.460Z,23.68
2022-08-19T06:46:16.960Z,23.73
2022-08-19T06:48:46.712Z,23.79
2022-08-19T06:51:43.693Z,23.93
2022-08-19T06:54:30.709Z,23.96
2022-08-19T06:57:39.221Z,23.96
2022-08-19T07:00:21.050Z,24.00
2022-08-19T07:03:03.029Z,24.01
2022-08-19T07:05:36.392Z,24.06
2022-08-19T07:08:23.904Z,24.12
2022-08-19T07:11:12.552Z,24.19
2022-08-19T07:13:52.247Z,24.32
2022-08-19T07:16:29.169Z,24.39
2022-08-19T07:22:32.265Z,24.68
2022-08-19T07:25:06.301Z,24.72
2022-08-19T07:27:39.821Z,24.76
2022-08-19T07:30:18.092Z,24.77
2022-08-19T07:32:46.656Z,24.78
2022-08-19T07:35:24.779Z,24.86
2022-08-19T07:37:54.191Z,24.95
2022-08-19T07:40:23.009Z,25.05
2022-08-19T07:42:59.217Z,25.15
2022-08-19T07:45:30.524Z,25.25
2022-08-19T07:47:59.926Z,25.30
2022-08-19T07:50:30.201Z,25.34
2022-08-19T07:52:58.839Z,25.46
2022-08-19T07:55:42.171Z,25.59
2022-08-19T07:58:21.967Z,25.58
2022-08-19T08:01:36.215Z,25.61
2022-08-19T08:04:32.043Z,25.75
2022-08-19T08:07:22.670Z,25.85
2022-08-19T08:09:52.896Z,25.98
2022-08-19T08:12:34.802Z,26.03
2022-08-19T08:15:08.977Z,26.09
2022-08-19T08:17:49.443Z,26.16
2022-08-19T08:20:20.570Z,26.20
2022-08-19T08:23:07.653Z,26.27
2022-08-19T08:25:37.906Z,26.37
2022-08-19T08:28:08.619Z,26.40
2022-08-19T08:30:45.026Z,26.47
2022-08-19T08:33:33.124Z,26.55
2022-08-19T08:36:06.196Z,26.70
2022-08-19T08:38:43.022Z,26.72
2022-08-19T08:41:46.293Z,26.88
2022-08-19T08:47:36.727Z,27.11
2022-08-19T08:50:20.505Z,27.23
2022-08-19T08:52:56.250Z,27.33
2022-08-19T08:55:36.948Z,27.26
2022-08-19T08:58:17.403Z,27.30
2022-08-19T09:00:49.384Z,27.35
2022-08-19T09:03:23.992Z,27.39
2022-08-19T09:06:12.006Z,27.37
2022-08-19T09:09:15.078Z,27.43
2022-08-19T09:12:04.005Z,27.66
2022-08-19T09:15:01.573Z,27.74
2022-08-19T09:17:34.520Z,27.87
2022-08-19T09:20:09.936Z,28.01
2022-08-19T09:22:40.437Z,28.06
2022-08-19T09:25:11.785Z,28.00
2022-08-19T09:27:43.611Z,28.05
2022-08-19T09:30:19.183Z,28.16
2022-08-19T09:32:52.835Z,28.22
2022-08-19T09:35:26.592Z,28.31
2022-08-19T09:37:59.929Z,28.32
2022-08-19T09:40:30.943Z,28.34
2022-08-19T09:43:09.905Z,28.33
2022-08-19T09:45:41.768Z,28.47
2022-08-19T09:48:11.687Z,28.49
2022-08-19T09:50:51.853Z,28.52
2022-08-19T09:53:25.647Z,28.50
2022-08-19T09:55:56.869Z,28.54
2022-08-19T09:58:28.832Z,28.54
2022-08-19T10:00:59.770Z,28.63
2022-08-19T10:03:31.366Z,28.66
2022-08-19T10:06:02.671Z,28.77
2022-08-19T10:08:37.678Z,28.78
2022-08-19T10:11:27.167Z,28.77
2022-08-19T10:13:55.321Z,28.77
2022-08-19T10:16:26.144Z,28.84
2022-08-19T10:19:00.643Z,28.87
2022-08-19T10:21:35.524Z,28.87
2022-08-19T10:24:06.471Z,28.92
2022-08-19T10:26:48.531Z,28.83
2022-08-19T10:29:32.124Z,28.80
2022-08-19T10:32:04.423Z,28.81
2022-08-19T10:34:33.218Z,28.84
2022-08-19T10:37:02.274Z,28.93
2022-08-19T10:39:43.032Z,29.00
2022-08-19T10:42:14.374Z,29.08
2022-08-19T10:44:43.860Z,29.09
2022-08-19T10:47:21.854Z,29.19
2022-08-19T10:50:14.511Z,29.17
2022-08-19T10:52:50.612Z,29.17
2022-08-19T10:55:43.151Z,29.15
2022-08-19T10:58:18.961Z,29.14
2022-08-19T11:00:55.327Z,29.23
2022-08-19T11:03:25.254Z,29.29
2022-08-19T11:06:09.814Z,29.35
2022-08-19T11:08:39.608Z,29.34
2022-08-19T11:11:09.180Z,29.38
2022-08-19T11:13:41.598Z,29.51
2022-08-19T11:16:20.563Z,29.54
2022-08-19T11:18:53.950Z,29.51
2022-08-19T11:21:34.758Z,29.54
2022-08-19T11:24:08.986Z,29.54
2022-08-19T11:26:39.572Z,29.67
2022-08-19T11:29:14.137Z,29.63
2022-08-19T11:31:48.292Z,29.69
2022-08-19T11:34:23.989Z,29.72
2022-08-19T11:36:52.994Z,29.74
2022-08-19T11:39:23.713Z,29.77
2022-08-19T11:41:52.489Z,29.83
2022-08-19T11:44:21.172Z,29.81
2022-08-19T11:46:49.849Z,29.87
2022-08-19T11:49:20.872Z,29.93
2022-08-19T11:51:51.768Z,29.87
2022-08-19T11:54:22.490Z,29.85
2022-08-19T11:56:51.133Z,29.90
2022-08-19T11:59:20.080Z,29.91
2022-08-19T12:01:48.613Z,29.97
2022-08-19T12:04:17.196Z,29.90
2022-08-19T12:06:47.201Z,29.86
2022-08-19T12:09:16.654Z,29.83
2022-08-19T12:11:45.329Z,29.72
2022-08-19T12:14:15.278Z,29.83
2022-08-19T12:16:49.135Z,30.03
2022-08-19T12:19:22.282Z,30.14
2022-08-19T12:21:56.507Z,30.13
2022-08-19T12:24:26.194Z,30.15
2022-08-19T12:26:56.560Z,30.21
2022-08-19T12:29:30.760Z,30.18
2022-08-19T12:32:01.615Z,30.18
2022-08-19T12:34:31.450Z,30.15
2022-08-19T12:37:03.944Z,30.17
2022-08-19T12:39:40.792Z,30.22
2022-08-19T12:42:12.923Z,30.28
2022-08-19T12:44:43.702Z,30.29
2022-08-19T12:47:15.396Z,30.46
2022-08-19T12:49:54.438Z,30.46
2022-08-19T12:52:28.416Z,30.49
2022-08-19T12:54:58.411Z,30.57
2022-08-19T12:57:31.952Z,30.56
2022-08-19T13:00:11.974Z,30.58
2022-08-19T13:02:42.741Z,30.57
2022-08-19T13:05:15.074Z,30.59
2022-08-19T13:07:52.185Z,30.66
2022-08-19T13:10:22.056Z,30.65
2022-08-19T13:12:52.722Z,30.70
2022-08-19T13:15:29.733Z,30.68
2022-08-19T13:18:00.495Z,30.74
2022-08-19T13:20:30.095Z,30.79
2022-08-19T13:22:58.890Z,30.85
2022-08-19T13:25:28.483Z,30.86
2022-08-19T13:27:57.199Z,30.85
2022-08-19T13:30:44.708Z,30.87
2022-08-19T13:33:17.394Z,30.85
2022-08-19T13:35:50.323Z,30.93
2022-08-19T13:38:22.952Z,31.03
2022-08-19T13:41:16.203Z,31.12
2022-08-19T13:43:56.127Z,31.21
2022-08-19T13:47:19.508Z,31.27
2022-08-19T13:49:56.950Z,31.24
2022-08-19T13:52:26.722Z,31.25
2022-08-19T13:54:57.985Z,31.29
2022-08-19T13:57:27.143Z,31.34
2022-08-19T14:00:36.347Z,31.35
2022-08-19T14:03:09.312Z,31.31
2022-08-19T14:05:38.869Z,31.34
2022-08-19T14:08:08.889Z,31.43
2022-08-19T14:10:38.228Z,31.45
2022-08-19T14:13:06.924Z,31.46
2022-08-19T14:15:40.712Z,31.53
2022-08-19T14:18:09.892Z,31.68
2022-08-19T14:20:38.851Z,31.62
2022-08-19T14:23:07.941Z,31.70
2022-08-19T14:25:36.897Z,31.66
2022-08-19T14:28:06.355Z,31.70
2022-08-19T14:30:38.842Z,31.61
2022-08-19T14:33:08.552Z,31.58
2022-08-19T14:35:39.013Z,31.46
2022-08-19T14:38:31.176Z,31.40
2022-08-19T14:41:38.870Z,31.48
2022-08-19T14:47:46.190Z,31.41
2022-08-19T14:50:17.927Z,31.26
2022-08-19T14:52:49.855Z,31.20
2022-08-19T15:27:40.124Z,30.77
2022-08-19T15:30:20.553Z,30.76
2022-08-19T15:33:37.264Z,30.72
2022-08-19T15:36:08.295Z,30.69
2022-08-19T15:38:43.174Z,30.67
2022-08-19T15:41:32.030Z,30.61
2022-08-19T15:47:53.328Z,30.50
2022-08-19T15:53:45.570Z,30.50
2022-08-19T15:56:16.249Z,30.49
2022-08-19T16:00:08.125Z,30.47
2022-08-19T16:03:17.069Z,30.45
2022-08-19T16:06:20.258Z,30.44
2022-08-19T16:08:50.461Z,30.50
2022-08-19T16:11:23.337Z,30.53
2022-08-19T16:13:55.158Z,30.53
2022-08-19T16:16:34.191Z,30.55
2022-08-19T16:19:10.636Z,30.63
2022-08-19T16:29:00.631Z,31.26
2022-08-19T16:31:30.209Z,31.46
2022-08-19T16:33:59.156Z,31.51
2022-08-19T16:36:28.827Z,31.51
2022-08-19T20:44:16.639Z,23.06
2022-08-19T20:47:46.837Z,22.92
2022-08-19T20:50:47.059Z,22.69
2022-08-19T20:53:20.948Z,22.47
2022-08-19T20:55:54.140Z,22.47
2022-08-19T20:58:59.737Z,22.41
2022-08-19T21:01:36.170Z,22.46
2022-08-19T21:04:04.915Z,22.41
2022-08-19T21:06:33.760Z,22.33
2022-08-19T21:09:03.048Z,22.29
2022-08-19T21:11:32.437Z,22.23
2022-08-19T21:14:01.280Z,22.15
2022-08-19T21:16:32.753Z,22.08
2022-08-19T21:19:02.459Z,21.97
2022-08-19T21:21:31.744Z,21.97
2022-08-19T21:24:03.244Z,21.89
2022-08-19T21:26:35.410Z,21.87
2022-08-19T21:29:18.007Z,21.87
2022-08-19T21:32:14.624Z,21.91
2022-08-19T21:34:47.237Z,21.82
2022-08-19T21:37:24.735Z,21.69
2022-08-19T21:39:55.382Z,21.81
2022-08-19T21:42:24.810Z,21.82
2022-08-19T21:45:05.285Z,21.79
2022-08-19T21:47:34.024Z,21.85
2022-08-19T21:50:28.890Z,21.72
2022-08-19T21:53:11.294Z,21.78
2022-08-19T21:55:42.896Z,21.71
2022-08-19T21:58:37.186Z,21.76
2022-08-19T22:01:15.383Z,21.73
2022-08-19T22:03:46.699Z,21.76
2022-08-19T22:06:19.681Z,21.74
2022-08-19T22:09:00.348Z,21.68
2022-08-19T22:11:46.160Z,21.70
2022-08-19T22:15:00.458Z,21.64
2022-08-19T22:17:41.090Z,21.60
2022-08-19T22:20:23.183Z,21.60
2022-08-19T22:22:58.847Z,21.60
2022-08-19T22:25:38.749Z,21.48
2022-08-19T22:28:12.274Z,21.43
2022-08-19T22:30:55.402Z,21.34
2022-08-19T22:33:39.578Z,21.32
2022-08-19T22:36:23.039Z,21.28
2022-08-19T22:38:54.496Z,21.17
2022-08-19T22:41:33.395Z,21.20
2022-08-19T22:44:09.892Z,21.12
2022-08-19T22:46:50.574Z,21.08
2022-08-19T22:49:26.059Z,21.11
2022-08-19T22:52:20.495Z,21.12
2022-08-19T22:55:01.059Z,21.15
2022-08-19T22:57:30.611Z,21.15
2022-08-19T23:00:01.238Z,21.15
2022-08-19T23:02:52.198Z,21.14
2022-08-19T23:05:29.304Z,21.11
2022-08-19T23:08:23.889Z,20.92
2022-08-19T23:11:17.631Z,20.80
2022-08-19T23:13:50.042Z,20.74
2022-08-19T23:16:18.678Z,20.67
2022-08-19T23:19:04.429Z,20.69
2022-08-19T23:22:30.759Z,20.65
2022-08-19T23:25:07.197Z,20.60
2022-08-19T23:31:21.748Z,20.48
2022-08-19T23:33:54.078Z,20.43
2022-08-19T23:36:23.131Z,20.34
2022-08-19T23:39:30.111Z,20.31
2022-08-19T23:41:59.801Z,20.23
2022-08-19T23:45:05.257Z,20.16
2022-08-19T23:47:59.758Z,20.06
2022-08-19T23:50:42.725Z,20.05
2022-08-19T23:53:13.249Z,20.02
2022-08-19T23:55:57.576Z,20.00
2022-08-19T23:58:30.032Z,20.02
